createdAt,value
2023-02-09T00:05:32.696Z,35.20
2023-02-09T00:12:00.036Z,35.00
2023-02-09T00:18:10.880Z,34.80
2023-02-09T00:24:22.468Z,35.00
2023-02-09T00:30:31.048Z,35.20
2023-02-09T00:36:44.435Z,35.30
2023-02-09T00:42:58.004Z,35.80
2023-02-09T00:49:07.674Z,35.50
2023-02-09T00:55:19.027Z,35.10
2023-02-09T01:01:28.991Z,35.20
2023-02-09T01:07:40.500Z,35.40
2023-02-09T01:13:49.555Z,35.50
2023-02-09T01:19:58.223Z,35.80
2023-02-09T01:26:12.778Z,35.70
2023-02-09T01:32:21.199Z,35.60
2023-02-09T01:38:30.597Z,35.80
2023-02-09T01:45:16.025Z,35.60
2023-02-09T01:51:26.268Z,35.60
2023-02-09T01:57:38.793Z,35.60
2023-02-09T02:03:51.260Z,35.60
2023-02-09T02:10:03.810Z,36.10
2023-02-09T02:23:06.365Z,36.20
2023-02-09T02:29:53.747Z,36.20
2023-02-09T02:36:09.006Z,36.20
2023-02-09T02:42:35.542Z,36.30
2023-02-09T02:48:44.735Z,36.10
2023-02-09T02:54:56.354Z,36.30
2023-02-09T03:01:08.941Z,36.30
2023-02-09T03:07:18.565Z,36.50
2023-02-09T03:14:03.573Z,36.50
2023-02-09T03:20:14.870Z,36.30
2023-02-09T03:26:27.030Z,37.00
2023-02-09T03:32:36.927Z,36.30
2023-02-09T03:38:46.259Z,36.50
2023-02-09T03:44:55.555Z,36.20
2023-02-09T03:51:07.560Z,36.40
2023-02-09T03:57:20.854Z,36.30
2023-02-09T04:03:29.726Z,36.30
2023-02-09T04:09:40.198Z,36.60
2023-02-09T04:15:47.599Z,36.40
2023-02-09T04:21:57.321Z,36.50
2023-02-09T04:28:07.285Z,36.50
2023-02-09T04:34:19.945Z,36.80
2023-02-09T04:40:29.397Z,37.40
2023-02-09T04:46:37.141Z,37.00
2023-02-09T04:52:47.362Z,37.60
2023-02-09T04:59:12.830Z,37.40
2023-02-09T05:05:26.163Z,37.40
2023-02-09T05:11:39.401Z,37.40
2023-02-09T05:17:50.893Z,37.00
2023-02-09T05:23:58.442Z,37.30
2023-02-09T05:30:08.393Z,36.90
2023-02-09T05:36:17.870Z,37.00
2023-02-09T05:42:29.868Z,36.80
2023-02-09T05:48:40.133Z,36.60
2023-02-09T05:54:52.404Z,36.70
2023-02-09T06:01:02.454Z,36.40
2023-02-09T06:07:12.033Z,36.50
2023-02-09T06:13:19.997Z,36.40
2023-02-09T06:19:31.130Z,36.30
2023-02-09T06:25:39.739Z,36.50
2023-02-09T06:31:49.219Z,36.20
2023-02-09T06:38:03.548Z,36.40
2023-02-09T06:44:13.077Z,36.20
2023-02-09T06:50:21.909Z,36.10
2023-02-09T06:56:31.629Z,36.20
2023-02-09T07:02:39.307Z,35.90
2023-02-09T07:08:52.503Z,36.00
2023-02-09T07:15:03.510Z,36.00
2023-02-09T07:21:18.014Z,36.00
2023-02-09T07:27:28.893Z,36.20
2023-02-09T07:33:39.365Z,36.60
2023-02-09T07:39:47.427Z,35.70
2023-02-09T07:45:58.274Z,35.90
2023-02-09T07:52:11.372Z,35.90
2023-02-09T07:58:21.941Z,36.00
2023-02-09T08:04:33.056Z,36.00
2023-02-09T08:10:42.684Z,36.30
2023-02-09T08:16:50.652Z,36.20
2023-02-09T08:23:03.557Z,35.90
2023-02-09T08:29:15.045Z,36.00
2023-02-09T08:35:25.311Z,36.10
2023-02-09T08:41:35.542Z,36.20
2023-02-09T08:47:43.764Z,36.40
2023-02-09T08:53:53.357Z,36.10
2023-02-09T09:00:04.155Z,36.00
2023-02-09T09:06:16.694Z,36.20
2023-02-09T09:12:28.226Z,36.30
2023-02-09T09:18:36.174Z,36.40
2023-02-09T09:24:49.239Z,36.40
2023-02-09T09:30:59.946Z,36.10
2023-02-09T09:37:10.289Z,36.20
2023-02-09T09:43:24.219Z,36.40
2023-02-09T09:49:33.306Z,36.20
2023-02-09T09:55:45.014Z,36.20
2023-02-09T10:01:55.484Z,36.40
2023-02-09T10:08:07.938Z,36.30
2023-02-09T10:14:19.098Z,36.20
2023-02-09T10:20:46.328Z,36.30
2023-02-09T10:27:07.172Z,36.50
2023-02-09T10:33:18.477Z,36.70
2023-02-09T10:39:30.527Z,36.50
2023-02-09T10:45:41.982Z,36.30
2023-02-09T10:51:51.159Z,36.30
2023-02-09T10:58:39.396Z,36.50
2023-02-09T11:04:49.293Z,36.90
2023-02-09T11:11:05.734Z,36.70
2023-02-09T11:17:35.204Z,36.40
2023-02-09T11:23:48.974Z,36.40
2023-02-09T11:29:59.565Z,36.50
2023-02-09T11:36:16.088Z,36.80
2023-02-09T11:42:43.850Z,36.70
2023-02-09T11:48:53.692Z,36.50
2023-02-09T11:55:06.955Z,36.50
2023-02-09T12:01:25.891Z,36.50
2023-02-09T12:07:39.544Z,36.70
2023-02-09T12:13:55.220Z,36.80
2023-02-09T12:20:06.937Z,36.70
2023-02-09T12:32:59.658Z,36.90
2023-02-09T12:39:14.977Z,37.00
2023-02-09T12:45:41.139Z,37.00
2023-02-09T12:52:24.263Z,37.00
2023-02-09T12:58:44.428Z,37.00
2023-02-09T13:05:02.862Z,36.70
2023-02-09T13:11:23.065Z,36.60
2023-02-09T13:17:39.220Z,36.70
2023-02-09T13:23:53.035Z,37.00
2023-02-09T13:30:03.647Z,37.00
2023-02-09T13:36:25.352Z,36.80
2023-02-09T13:42:36.408Z,37.00
2023-02-09T13:48:44.547Z,36.70
2023-02-09T13:54:55.182Z,38.20
2023-02-09T14:01:04.970Z,37.80
2023-02-09T14:07:16.266Z,37.20
2023-02-09T14:13:26.771Z,37.80
2023-02-09T14:19:39.598Z,38.30
2023-02-09T14:25:50.634Z,38.90
2023-02-09T14:32:03.494Z,39.00
2023-02-09T14:38:42.621Z,38.10
2023-02-09T14:44:56.077Z,37.90
2023-02-09T14:51:12.297Z,37.90
2023-02-09T14:57:23.138Z,38.30
2023-02-09T15:03:35.886Z,38.70
2023-02-09T15:09:48.846Z,38.10
2023-02-09T15:15:56.588Z,37.80
2023-02-09T15:22:08.114Z,38.00
2023-02-09T15:28:26.060Z,38.50
2023-02-09T15:34:35.776Z,38.10
2023-02-09T15:41:04.136Z,37.60
2023-02-09T15:47:28.952Z,37.70
2023-02-09T15:53:38.189Z,38.00
2023-02-09T15:59:46.951Z,38.20
2023-02-09T16:05:58.920Z,38.00
2023-02-09T16:12:11.254Z,37.80
2023-02-09T16:18:22.323Z,37.60
2023-02-09T16:24:37.420Z,37.80
2023-02-09T16:30:54.034Z,37.90
2023-02-09T16:37:03.802Z,38.00
2023-02-09T16:43:16.998Z,38.10
2023-02-09T16:49:38.639Z,37.90
2023-02-09T16:55:51.074Z,37.40
2023-02-09T17:02:02.775Z,37.20
2023-02-09T17:08:16.281Z,37.60
2023-02-09T17:14:26.866Z,38.00
2023-02-09T17:20:38.965Z,38.10
2023-02-09T17:26:47.552Z,39.20
2023-02-09T17:33:00.766Z,39.70
2023-02-09T17:39:13.043Z,38.30
2023-02-09T17:45:29.020Z,38.90
2023-02-09T17:51:41.861Z,39.80
2023-02-09T17:57:52.254Z,40.40
2023-02-09T18:04:04.472Z,40.80
2023-02-09T18:10:17.105Z,40.50
2023-02-09T18:16:28.180Z,40.20
2023-02-09T18:22:39.224Z,39.40
2023-02-09T18:28:52.816Z,39.30
2023-02-09T18:35:05.065Z,40.90
2023-02-09T18:41:18.070Z,40.10
2023-02-09T18:47:28.316Z,40.10
2023-02-09T18:53:40.621Z,41.20
2023-02-09T18:59:48.494Z,40.00
2023-02-09T19:06:00.011Z,39.30
2023-02-09T19:12:14.619Z,38.70
2023-02-09T19:18:23.588Z,38.30
2023-02-09T19:24:33.156Z,38.60
2023-02-09T19:30:43.626Z,39.50
2023-02-09T19:36:53.683Z,40.10
2023-02-09T19:43:03.694Z,39.10
2023-02-09T19:49:13.242Z,39.60
2023-02-09T19:55:23.897Z,38.60
2023-02-09T20:01:35.193Z,39.00
2023-02-09T20:07:45.135Z,38.80
2023-02-09T20:13:54.380Z,38.80
2023-02-09T20:20:07.490Z,38.70
2023-02-09T20:26:20.289Z,38.10
2023-02-09T20:32:31.561Z,38.10
2023-02-09T20:38:40.737Z,38.30
2023-02-09T20:45:07.748Z,38.20
2023-02-09T20:51:17.460Z,38.10
2023-02-09T20:57:29.902Z,38.30
2023-02-09T21:03:40.896Z,38.10
2023-02-09T21:09:54.308Z,37.50
2023-02-09T21:16:05.582Z,37.50
2023-02-09T21:22:16.440Z,37.70
2023-02-09T21:28:24.804Z,38.00
2023-02-09T21:34:39.590Z,38.20
2023-02-09T21:40:51.446Z,37.90
2023-02-09T21:47:05.369Z,37.60
2023-02-09T21:53:13.578Z,37.50
2023-02-09T21:59:23.764Z,37.70
2023-02-09T22:05:33.760Z,37.90
2023-02-09T22:11:43.832Z,37.80
2023-02-09T22:17:55.206Z,37.60
2023-02-09T22:24:07.101Z,37.50
2023-02-09T22:30:18.345Z,37.70
2023-02-09T22:36:29.249Z,37.90
2023-02-09T22:42:41.470Z,38.00
2023-02-09T22:48:58.289Z,38.00
2023-02-09T22:55:12.130Z,38.10
2023-02-09T23:01:24.980Z,37.90
2023-02-09T23:07:34.909Z,39.40
2023-02-09T23:13:47.077Z,40.40
2023-02-09T23:19:59.278Z,40.70
2023-02-09T23:26:09.360Z,41.30
2023-02-09T23:32:19.814Z,41.40
2023-02-09T23:38:30.848Z,40.10
2023-02-09T23:44:42.739Z,39.50
2023-02-09T23:50:54.984Z,39.40
2023-02-09T23:57:06.613Z,40.30
